sensor_id;sensor_type;location;lat;lon;timestamp;pressure;altitude;pressure_sealevel;temperature;humidity
72677;BME280;60755;51.374;10.662;2022-10-28T00:02:23;97924.75;;;11.11;100.00
72677;BME280;60755;51.374;10.662;2022-10-28T00:04:50;97935.19;;;11.18;100.00
72677;BME280;60755;51.374;10.662;2022-10-28T00:07:16;97934.47;;;11.11;100.00
72677;BME280;60755;51.374;10.662;2022-10-28T00:09:43;97934.13;;;11.07;100.00
72677;BME280;60755;51.374;10.662;2022-10-28T00:12:09;97932.63;;;11.11;100.00
72677;BME280;60755;51.374;10.662;2022-10-28T00:14:36;97925.31;;;11.13;100.00
72677;BME280;60755;51.374;10.662;2022-10-28T00:17:02;97927.16;;;11.13;100.00
72677;BME280;60755;51.374;10.662;2022-10-28T00:19:30;97928.41;;;11.10;100.00
72677;BME280;60755;51.374;10.662;2022-10-28T00:21:57;97920.34;;;11.05;100.00
72677;BME280;60755;51.374;10.662;2022-10-28T00:24:23;97919.31;;;11.06;100.00
72677;BME280;60755;51.374;10.662;2022-10-28T00:26:50;97920.22;;;11.00;100.00
72677;BME280;60755;51.374;10.662;2022-10-28T00:29:18;97912.63;;;11.10;100.00
72677;BME280;60755;51.374;10.662;2022-10-28T00:31:45;97911.28;;;11.19;100.00
72677;BME280;60755;51.374;10.662;2022-10-28T00:34:14;97906.19;;;11.25;100.00
72677;BME280;60755;51.374;10.662;2022-10-28T00:36:43;97914.63;;;11.27;100.00
72677;BME280;60755;51.374;10.662;2022-10-28T00:39:12;97915.44;;;11.27;100.00
72677;BME280;60755;51.374;10.662;2022-10-28T00:41:40;97909.16;;;11.28;100.00
72677;BME280;60755;51.374;10.662;2022-10-28T00:44:40;97918.41;;;11.31;100.00
72677;BME280;60755;51.374;10.662;2022-10-28T00:47:13;97922.38;;;11.40;100.00
72677;BME280;60755;51.374;10.662;2022-10-28T00:49:41;97918.53;;;11.24;100.00
72677;BME280;60755;51.374;10.662;2022-10-28T00:52:16;97916.81;;;11.30;100.00
72677;BME280;60755;51.374;10.662;2022-10-28T00:54:44;97918.88;;;11.28;100.00
72677;BME280;60755;51.374;10.662;2022-10-28T00:57:15;97918.53;;;11.24;100.00
72677;BME280;60755;51.374;10.662;2022-10-28T00:59:45;97921.25;;;11.17;100.00
72677;BME280;60755;51.374;10.662;2022-10-28T01:02:13;97917.81;;;11.17;100.00
72677;BME280;60755;51.374;10.662;2022-10-28T01:04:41;97913.34;;;11.17;100.00
72677;BME280;60755;51.374;10.662;2022-10-28T01:07:09;97916.41;;;11.14;100.00
72677;BME280;60755;51.374;10.662;2022-10-28T01:09:38;97914.22;;;11.11;100.00
72677;BME280;60755;51.374;10.662;2022-10-28T01:12:13;97904.34;;;11.07;100.00
72677;BME280;60755;51.374;10.662;2022-10-28T01:14:53;97900.22;;;10.99;100.00
72677;BME280;60755;51.374;10.662;2022-10-28T01:17:30;97904.06;;;10.97;100.00
72677;BME280;60755;51.374;10.662;2022-10-28T01:23:27;97907.22;;;11.05;100.00
72677;BME280;60755;51.374;10.662;2022-10-28T01:26:27;97896.56;;;11.00;100.00
72677;BME280;60755;51.374;10.662;2022-10-28T01:29:13;97901.91;;;10.93;100.00
72677;BME280;60755;51.374;10.662;2022-10-28T01:31:49;97895.84;;;10.93;100.00
72677;BME280;60755;51.374;10.662;2022-10-28T01:34:26;97886.63;;;10.84;100.00
72677;BME280;60755;51.374;10.662;2022-10-28T01:36:58;97890.66;;;10.86;100.00
72677;BME280;60755;51.374;10.662;2022-10-28T01:39:32;97891.75;;;10.79;100.00
72677;BME280;60755;51.374;10.662;2022-10-28T01:42:08;97895.09;;;11.04;100.00
72677;BME280;60755;51.374;10.662;2022-10-28T01:44:45;97884.84;;;11.14;100.00
72677;BME280;60755;51.374;10.662;2022-10-28T01:47:16;97894.50;;;11.02;100.00
72677;BME280;60755;51.374;10.662;2022-10-28T01:49:48;97885.59;;;11.03;100.00
72677;BME280;60755;51.374;10.662;2022-10-28T01:52:20;97878.00;;;10.95;100.00
72677;BME280;60755;51.374;10.662;2022-10-28T01:54:52;97877.84;;;10.90;100.00
72677;BME280;60755;51.374;10.662;2022-10-28T01:57:22;97877.28;;;10.88;100.00
72677;BME280;60755;51.374;10.662;2022-10-28T01:59:51;97885.44;;;11.16;100.00
72677;BME280;60755;51.374;10.662;2022-10-28T02:02:19;97878.19;;;11.12;100.00
72677;BME280;60755;51.374;10.662;2022-10-28T02:04:46;97880.78;;;11.00;100.00
72677;BME280;60755;51.374;10.662;2022-10-28T02:07:13;97871.66;;;10.84;100.00
72677;BME280;60755;51.374;10.662;2022-10-28T02:09:58;97862.66;;;10.74;100.00
72677;BME280;60755;51.374;10.662;2022-10-28T02:12:28;97865.75;;;10.71;100.00
72677;BME280;60755;51.374;10.662;2022-10-28T02:15:20;97873.06;;;10.69;100.00
72677;BME280;60755;51.374;10.662;2022-10-28T02:18:04;97871.50;;;10.79;100.00
72677;BME280;60755;51.374;10.662;2022-10-28T02:20:40;97866.53;;;10.89;100.00
72677;BME280;60755;51.374;10.662;2022-10-28T02:23:16;97857.13;;;10.82;100.00
72677;BME280;60755;51.374;10.662;2022-10-28T02:25:50;97867.56;;;10.88;100.00
72677;BME280;60755;51.374;10.662;2022-10-28T02:28:22;97859.91;;;10.87;100.00
72677;BME280;60755;51.374;10.662;2022-10-28T02:30:53;97864.34;;;10.86;100.00
72677;BME280;60755;51.374;10.662;2022-10-28T02:33:27;97879.59;;;10.96;100.00
72677;BME280;60755;51.374;10.662;2022-10-28T02:35:59;97876.09;;;11.02;100.00
72677;BME280;60755;51.374;10.662;2022-10-28T02:38:31;97873.16;;;11.10;100.00
72677;BME280;60755;51.374;10.662;2022-10-28T02:41:03;97873.66;;;11.19;100.00
72677;BME280;60755;51.374;10.662;2022-10-28T02:43:33;97874.38;;;11.26;100.00
72677;BME280;60755;51.374;10.662;2022-10-28T02:46:02;97883.63;;;11.29;100.00
72677;BME280;60755;51.374;10.662;2022-10-28T02:48:35;97885.13;;;11.25;100.00
72677;BME280;60755;51.374;10.662;2022-10-28T02:51:08;97882.50;;;11.25;100.00
72677;BME280;60755;51.374;10.662;2022-10-28T02:53:44;97883.88;;;11.27;100.00
72677;BME280;60755;51.374;10.662;2022-10-28T02:56:14;97882.41;;;11.31;100.00
72677;BME280;60755;51.374;10.662;2022-10-28T02:58:43;97880.09;;;11.23;100.00
72677;BME280;60755;51.374;10.662;2022-10-28T03:01:10;97876.69;;;11.34;100.00
72677;BME280;60755;51.374;10.662;2022-10-28T03:03:38;97868.56;;;11.36;100.00
72677;BME280;60755;51.374;10.662;2022-10-28T03:06:07;97850.84;;;11.43;100.00
72677;BME280;60755;51.374;10.662;2022-10-28T03:08:34;97855.00;;;11.51;100.00
72677;BME280;60755;51.374;10.662;2022-10-28T03:11:01;97849.91;;;11.37;100.00
72677;BME280;60755;51.374;10.662;2022-10-28T03:13:27;97850.16;;;11.36;100.00
72677;BME280;60755;51.374;10.662;2022-10-28T03:15:54;97837.44;;;11.33;100.00
72677;BME280;60755;51.374;10.662;2022-10-28T03:18:20;97849.28;;;11.54;100.00
72677;BME280;60755;51.374;10.662;2022-10-28T03:20:48;97846.44;;;11.55;100.00
72677;BME280;60755;51.374;10.662;2022-10-28T03:23:14;97839.88;;;11.46;100.00
72677;BME280;60755;51.374;10.662;2022-10-28T03:25:41;97842.75;;;11.44;100.00
72677;BME280;60755;51.374;10.662;2022-10-28T03:28:07;97845.75;;;11.48;100.00
72677;BME280;60755;51.374;10.662;2022-10-28T03:30:34;97846.16;;;11.45;100.00
72677;BME280;60755;51.374;10.662;2022-10-28T03:33:00;97837.69;;;11.43;100.00
72677;BME280;60755;51.374;10.662;2022-10-28T03:35:27;97849.84;;;11.44;100.00
72677;BME280;60755;51.374;10.662;2022-10-28T03:37:55;97844.94;;;11.47;100.00
72677;BME280;60755;51.374;10.662;2022-10-28T03:40:21;97856.84;;;11.50;100.00
72677;BME280;60755;51.374;10.662;2022-10-28T03:42:48;97856.03;;;11.49;100.00
72677;BME280;60755;51.374;10.662;2022-10-28T03:45:14;97859.09;;;11.46;100.00
72677;BME280;60755;51.374;10.662;2022-10-28T03:47:41;97865.06;;;11.42;100.00
72677;BME280;60755;51.374;10.662;2022-10-28T03:50:08;97859.09;;;11.46;100.00
72677;BME280;60755;51.374;10.662;2022-10-28T03:52:34;97864.38;;;11.46;100.00
72677;BME280;60755;51.374;10.662;2022-10-28T03:55:03;97867.13;;;11.40;100.00
72677;BME280;60755;51.374;10.662;2022-10-28T03:57:31;97873.38;;;11.39;100.00
72677;BME280;60755;51.374;10.662;2022-10-28T03:59:57;97868.31;;;11.26;100.00
72677;BME280;60755;51.374;10.662;2022-10-28T04:02:24;97858.53;;;11.14;100.00
72677;BME280;60755;51.374;10.662;2022-10-28T04:04:50;97858.50;;;11.03;100.00
72677;BME280;60755;51.374;10.662;2022-10-28T04:07:17;97845.88;;;10.93;100.00
72677;BME280;60755;51.374;10.662;2022-10-28T04:09:44;97848.94;;;10.90;100.00
72677;BME280;60755;51.374;10.662;2022-10-28T04:12:15;97841.63;;;10.92;100.00
72677;BME280;60755;51.374;10.662;2022-10-28T04:14:42;97842.00;;;10.96;100.00
72677;BME280;60755;51.374;10.662;2022-10-28T04:17:08;97841.81;;;11.09;100.00
72677;BME280;60755;51.374;10.662;2022-10-28T04:19:35;97841.53;;;10.99;100.00
72677;BME280;60755;51.374;10.662;2022-10-28T04:22:01;97848.34;;;10.88;100.00
72677;BME280;60755;51.374;10.662;2022-10-28T04:24:27;97851.56;;;10.90;100.00
72677;BME280;60755;51.374;10.662;2022-10-28T04:26:54;97845.88;;;10.93;100.00
72677;BME280;60755;51.374;10.662;2022-10-28T04:29:22;97852.59;;;10.89;100.00
72677;BME280;60755;51.374;10.662;2022-10-28T04:31:48;97856.97;;;10.95;100.00
72677;BME280;60755;51.374;10.662;2022-10-28T04:34:15;97853.31;;;10.96;100.00
72677;BME280;60755;51.374;10.662;2022-10-28T04:36:41;97840.84;;;10.91;100.00
72677;BME280;60755;51.374;10.662;2022-10-28T04:39:08;97836.09;;;11.12;100.00
72677;BME280;60755;51.374;10.662;2022-10-28T04:41:35;97847.44;;;11.12;100.00
72677;BME280;60755;51.374;10.662;2022-10-28T04:44:01;97837.38;;;11.09;100.00
72677;BME280;60755;51.374;10.662;2022-10-28T04:46:29;97841.94;;;11.14;100.00
72677;BME280;60755;51.374;10.662;2022-10-28T04:48:55;97857.06;;;11.18;100.00
72677;BME280;60755;51.374;10.662;2022-10-28T04:51:22;97853.78;;;11.23;100.00
72677;BME280;60755;51.374;10.662;2022-10-28T04:53:48;97846.81;;;11.29;100.00
72677;BME280;60755;51.374;10.662;2022-10-28T04:56:15;97878.03;;;11.55;100.00
72677;BME280;60755;51.374;10.662;2022-10-28T04:58:41;97846.00;;;11.70;100.00
72677;BME280;60755;51.374;10.662;2022-10-28T05:01:09;97858.91;;;11.60;100.00
72677;BME280;60755;51.374;10.662;2022-10-28T05:03:37;97849.44;;;11.70;100.00
72677;BME280;60755;51.374;10.662;2022-10-28T05:06:03;97832.16;;;11.74;100.00
72677;BME280;60755;51.374;10.662;2022-10-28T05:08:30;97828.81;;;11.67;100.00
72677;BME280;60755;51.374;10.662;2022-10-28T05:10:56;97830.31;;;11.75;100.00
72677;BME280;60755;51.374;10.662;2022-10-28T05:13:23;97825.00;;;11.82;100.00
72677;BME280;60755;51.374;10.662;2022-10-28T05:15:50;97817.19;;;11.87;100.00
72677;BME280;60755;51.374;10.662;2022-10-28T05:18:16;97814.34;;;11.88;100.00
72677;BME280;60755;51.374;10.662;2022-10-28T05:20:44;97822.34;;;11.93;100.00
72677;BME280;60755;51.374;10.662;2022-10-28T05:23:11;97809.53;;;12.09;100.00
72677;BME280;60755;51.374;10.662;2022-10-28T05:25:37;97813.31;;;12.13;100.00
72677;BME280;60755;51.374;10.662;2022-10-28T05:28:04;97818.81;;;12.11;100.00
72677;BME280;60755;51.374;10.662;2022-10-28T05:30:33;97823.06;;;12.12;100.00
72677;BME280;60755;51.374;10.662;2022-10-28T05:33:01;97826.03;;;12.04;100.00
72677;BME280;60755;51.374;10.662;2022-10-28T05:35:27;97816.50;;;12.03;100.00
72677;BME280;60755;51.374;10.662;2022-10-28T05:37:56;97814.00;;;11.96;100.00
72677;BME280;60755;51.374;10.662;2022-10-28T05:40:23;97821.22;;;11.89;100.00
72677;BME280;60755;51.374;10.662;2022-10-28T05:42:49;97814.22;;;11.83;100.00
72677;BME280;60755;51.374;10.662;2022-10-28T05:45:16;97805.53;;;11.83;100.00
72677;BME280;60755;51.374;10.662;2022-10-28T05:47:43;97804.56;;;11.77;100.00
72677;BME280;60755;51.374;10.662;2022-10-28T05:50:10;97812.38;;;11.84;100.00
72677;BME280;60755;51.374;10.662;2022-10-28T05:52:37;97806.66;;;11.87;100.00
72677;BME280;60755;51.374;10.662;2022-10-28T05:55:06;97804.72;;;11.82;100.00
72677;BME280;60755;51.374;10.662;2022-10-28T05:57:33;97811.09;;;11.74;100.00
72677;BME280;60755;51.374;10.662;2022-10-28T06:00:00;97812.38;;;11.84;100.00
72677;BME280;60755;51.374;10.662;2022-10-28T06:02:26;97811.66;;;11.76;100.00
72677;BME280;60755;51.374;10.662;2022-10-28T06:04:53;97810.56;;;11.96;100.00
72677;BME280;60755;51.374;10.662;2022-10-28T06:07:19;97807.72;;;11.97;100.00
72677;BME280;60755;51.374;10.662;2022-10-28T06:09:46;97801.84;;;12.07;100.00
72677;BME280;60755;51.374;10.662;2022-10-28T06:12:13;97803.56;;;12.01;100.00
72677;BME280;60755;51.374;10.662;2022-10-28T06:14:40;97795.78;;;12.07;100.00
72677;BME280;60755;51.374;10.662;2022-10-28T06:17:06;97796.59;;;12.07;100.00
72677;BME280;60755;51.374;10.662;2022-10-28T06:19:33;97800.38;;;12.11;100.00
72677;BME280;60755;51.374;10.662;2022-10-28T06:21:59;97799.78;;;12.09;100.00
72677;BME280;60755;51.374;10.662;2022-10-28T06:24:26;97792.81;;;12.15;100.00
72677;BME280;60755;51.374;10.662;2022-10-28T06:26:52;97794.53;;;12.21;100.00
72677;BME280;60755;51.374;10.662;2022-10-28T06:29:20;97790.50;;;12.18;100.00
72677;BME280;60755;51.374;10.662;2022-10-28T06:31:47;97789.69;;;12.18;100.00
72677;BME280;60755;51.374;10.662;2022-10-28T06:34:13;97788.44;;;12.09;100.00
72677;BME280;60755;51.374;10.662;2022-10-28T06:36:40;97796.47;;;12.02;100.00
72677;BME280;60755;51.374;10.662;2022-10-28T06:39:06;97797.97;;;11.98;100.00
72677;BME280;60755;51.374;10.662;2022-10-28T06:41:33;97800.69;;;12.03;100.00
72677;BME280;60755;51.374;10.662;2022-10-28T06:44:00;97804.16;;;12.15;100.00
72677;BME280;60755;51.374;10.662;2022-10-28T06:46:28;97808.63;;;12.15;100.00
72677;BME280;60755;51.374;10.662;2022-10-28T06:48:55;97814.69;;;12.15;100.00
72677;BME280;60755;51.374;10.662;2022-10-28T06:51:22;97809.06;;;12.23;100.00
72677;BME280;60755;51.374;10.662;2022-10-28T06:53:49;97806.31;;;12.18;100.00
72677;BME280;60755;51.374;10.662;2022-10-28T06:56:16;97812.38;;;12.19;100.00
72677;BME280;60755;51.374;10.662;2022-10-28T06:58:42;97820.06;;;12.20;100.00
72677;BME280;60755;51.374;10.662;2022-10-28T07:01:09;97809.06;;;12.23;100.00
72677;BME280;60755;51.374;10.662;2022-10-28T07:03:37;97811.56;;;12.18;100.00
72677;BME280;60755;51.374;10.662;2022-10-28T07:06:04;97804.47;;;12.19;100.00
72677;BME280;60755;51.374;10.662;2022-10-28T07:08:31;97814.13;;;12.13;100.00
72677;BME280;60755;51.374;10.662;2022-10-28T07:10:58;97804.94;;;12.16;100.00
72677;BME280;60755;51.374;10.662;2022-10-28T07:13:27;97812.06;;;12.15;100.00
72677;BME280;60755;51.374;10.662;2022-10-28T07:15:55;97811.25;;;12.15;100.00
72677;BME280;60755;51.374;10.662;2022-10-28T07:18:23;97811.13;;;12.21;100.00
72677;BME280;60755;51.374;10.662;2022-10-28T07:20:51;97815.25;;;12.29;100.00
72677;BME280;60755;51.374;10.662;2022-10-28T07:23:18;97808.25;;;12.35;100.00
72677;BME280;60755;51.374;10.662;2022-10-28T07:25:50;97817.06;;;12.40;100.00
72677;BME280;60755;51.374;10.662;2022-10-28T07:28:17;97811.66;;;12.47;100.00
72677;BME280;60755;51.374;10.662;2022-10-28T07:30:44;97818.06;;;12.51;100.00
72677;BME280;60755;51.374;10.662;2022-10-28T07:33:10;97805.72;;;12.51;100.00
72677;BME280;60755;51.374;10.662;2022-10-28T07:35:37;97807.84;;;12.66;100.00
72677;BME280;60755;51.374;10.662;2022-10-28T07:38:05;97807.19;;;12.87;100.00
72677;BME280;60755;51.374;10.662;2022-10-28T07:40:31;97809.25;;;13.14;100.00
72677;BME280;60755;51.374;10.662;2022-10-28T07:42:58;97804.16;;;13.36;100.00
72677;BME280;60755;51.374;10.662;2022-10-28T07:45:24;97807.34;;;13.55;100.00
72677;BME280;60755;51.374;10.662;2022-10-28T07:47:51;97804.00;;;13.76;98.31
72677;BME280;60755;51.374;10.662;2022-10-28T07:50:17;97806.88;;;13.91;98.71
72677;BME280;60755;51.374;10.662;2022-10-28T07:52:44;97799.81;;;14.14;97.48
72677;BME280;60755;51.374;10.662;2022-10-28T07:55:12;97804.97;;;14.25;95.63
72677;BME280;60755;51.374;10.662;2022-10-28T07:57:38;97803.59;;;14.40;96.32
72677;BME280;60755;51.374;10.662;2022-10-28T08:00:06;97808.63;;;14.41;96.34
72677;BME280;60755;51.374;10.662;2022-10-28T08:02:33;97799.28;;;14.34;95.75
72677;BME280;60755;51.374;10.662;2022-10-28T08:04:59;97799.03;;;14.35;95.32
72677;BME280;60755;51.374;10.662;2022-10-28T08:07:26;97792.22;;;14.39;95.51
72677;BME280;60755;51.374;10.662;2022-10-28T08:09:53;97790.63;;;14.38;93.96
72677;BME280;60755;51.374;10.662;2022-10-28T08:12:21;97791.41;;;14.39;96.04
72677;BME280;60755;51.374;10.662;2022-10-28T08:14:47;97797.22;;;14.58;95.31
72677;BME280;60755;51.374;10.662;2022-10-28T08:17:14;97795.94;;;14.82;95.15
72677;BME280;60755;51.374;10.662;2022-10-28T08:19:40;97803.69;;;15.16;93.44
72677;BME280;60755;51.374;10.662;2022-10-28T08:22:07;97792.31;;;15.47;88.63
72677;BME280;60755;51.374;10.662;2022-10-28T08:24:33;97789.41;;;15.76;87.90
72677;BME280;60755;51.374;10.662;2022-10-28T08:27:00;97798.66;;;16.10;89.83
72677;BME280;60755;51.374;10.662;2022-10-28T08:29:28;97793.22;;;16.32;86.85
72677;BME280;60755;51.374;10.662;2022-10-28T08:31:55;97796.97;;;16.41;90.49
72677;BME280;60755;51.374;10.662;2022-10-28T08:34:22;97795.69;;;16.49;88.41
72677;BME280;60755;51.374;10.662;2022-10-28T08:36:53;97793.59;;;16.56;89.08
72677;BME280;60755;51.374;10.662;2022-10-28T08:39:19;97794.91;;;16.59;88.50
72677;BME280;60755;51.374;10.662;2022-10-28T08:41:49;97799.41;;;16.48;88.79
72677;BME280;60755;51.374;10.662;2022-10-28T08:44:37;97795.59;;;16.34;89.70
72677;BME280;60755;51.374;10.662;2022-10-28T08:47:15;97794.31;;;16.41;88.98
72677;BME280;60755;51.374;10.662;2022-10-28T08:49:47;97792.47;;;16.42;84.09
72677;BME280;60755;51.374;10.662;2022-10-28T08:52:24;97788.25;;;16.46;85.53
72677;BME280;60755;51.374;10.662;2022-10-28T08:54:56;97783.34;;;16.70;84.02
72677;BME280;60755;51.374;10.662;2022-10-28T08:57:32;97786.31;;;16.89;86.47
72677;BME280;60755;51.374;10.662;2022-10-28T09:00:05;97782.84;;;16.88;84.84
72677;BME280;60755;51.374;10.662;2022-10-28T09:02:47;97787.13;;;16.99;85.50
72677;BME280;60755;51.374;10.662;2022-10-28T09:05:19;97781.56;;;17.06;86.53
72677;BME280;60755;51.374;10.662;2022-10-28T09:07:46;97783.16;;;17.07;85.61
72677;BME280;60755;51.374;10.662;2022-10-28T09:10:14;97777.28;;;17.00;83.60
72677;BME280;60755;51.374;10.662;2022-10-28T09:12:50;97772.53;;;17.02;83.18
72677;BME280;60755;51.374;10.662;2022-10-28T09:15:29;97773.38;;;17.18;83.56
72677;BME280;60755;51.374;10.662;2022-10-28T09:18:09;97769.09;;;17.12;82.50
72677;BME280;60755;51.374;10.662;2022-10-28T09:20:48;97781.59;;;17.26;83.35
72677;BME280;60755;51.374;10.662;2022-10-28T09:23:21;97777.63;;;17.29;83.00
72677;BME280;60755;51.374;10.662;2022-10-28T09:25:54;97778.69;;;17.43;81.69
72677;BME280;60755;51.374;10.662;2022-10-28T09:28:36;97781.34;;;17.63;81.81
72677;BME280;60755;51.374;10.662;2022-10-28T09:31:11;97789.59;;;17.67;82.69
72677;BME280;60755;51.374;10.662;2022-10-28T09:33:47;97782.72;;;17.81;82.36
72677;BME280;60755;51.374;10.662;2022-10-28T09:36:21;97781.06;;;18.11;79.15
72677;BME280;60755;51.374;10.662;2022-10-28T09:38:50;97790.06;;;18.30;79.63
72677;BME280;60755;51.374;10.662;2022-10-28T09:41:20;97783.94;;;18.30;80.89
72677;BME280;60755;51.374;10.662;2022-10-28T09:43:52;97789.56;;;18.23;79.48
72677;BME280;60755;51.374;10.662;2022-10-28T09:46:23;97801.22;;;18.27;79.60
72677;BME280;60755;51.374;10.662;2022-10-28T09:48:54;97803.38;;;18.20;81.29
72677;BME280;60755;51.374;10.662;2022-10-28T09:51:28;97813.47;;;18.38;80.32
72677;BME280;60755;51.374;10.662;2022-10-28T09:53:57;97818.25;;;18.41;80.11
72677;BME280;60755;51.374;10.662;2022-10-28T09:56:25;97814.25;;;18.34;79.72
72677;BME280;60755;51.374;10.662;2022-10-28T09:58:53;97817.16;;;18.42;80.30
72677;BME280;60755;51.374;10.662;2022-10-28T10:01:22;97822.44;;;18.63;78.78
72677;BME280;60755;51.374;10.662;2022-10-28T10:03:50;97812.28;;;18.80;79.04
72677;BME280;60755;51.374;10.662;2022-10-28T10:06:19;97808.44;;;19.02;77.25
72677;BME280;60755;51.374;10.662;2022-10-28T10:08:47;97814.53;;;19.07;75.20
72677;BME280;60755;51.374;10.662;2022-10-28T10:11:23;97815.91;;;18.99;75.98
72677;BME280;60755;51.374;10.662;2022-10-28T10:13:51;97809.75;;;19.04;74.54
72677;BME280;60755;51.374;10.662;2022-10-28T10:16:25;97815.41;;;18.92;73.31
72677;BME280;60755;51.374;10.662;2022-10-28T10:18:58;97817.47;;;19.06;71.65
72677;BME280;60755;51.374;10.662;2022-10-28T10:21:43;97823.03;;;19.14;69.70
72677;BME280;60755;51.374;10.662;2022-10-28T10:24:32;97822.31;;;18.98;72.28
72677;BME280;60755;51.374;10.662;2022-10-28T10:27:01;97826.75;;;19.13;68.95
72677;BME280;60755;51.374;10.662;2022-10-28T10:29:29;97825.09;;;18.73;71.50
72677;BME280;60755;51.374;10.662;2022-10-28T10:32:07;97818.19;;;18.67;70.37
72677;BME280;60755;51.374;10.662;2022-10-28T10:34:34;97819.78;;;18.63;71.38
72677;BME280;60755;51.374;10.662;2022-10-28T10:37:01;97813.16;;;18.50;72.66
72677;BME280;60755;51.374;10.662;2022-10-28T10:39:33;97811.50;;;18.64;70.40
72677;BME280;60755;51.374;10.662;2022-10-28T10:42:00;97809.91;;;18.73;70.27
72677;BME280;60755;51.374;10.662;2022-10-28T10:44:32;97804.84;;;18.77;70.58
72677;BME280;60755;51.374;10.662;2022-10-28T10:47:18;97812.47;;;18.94;70.36
72677;BME280;60755;51.374;10.662;2022-10-28T10:49:45;97806.25;;;19.09;68.92
72677;BME280;60755;51.374;10.662;2022-10-28T10:52:17;97809.09;;;19.22;69.19
72677;BME280;60755;51.374;10.662;2022-10-28T10:55:00;97801.81;;;19.38;69.33
72677;BME280;60755;51.374;10.662;2022-10-28T10:57:27;97800.72;;;19.39;67.69
72677;BME280;60755;51.374;10.662;2022-10-28T10:59:55;97796.75;;;19.37;67.99
72677;BME280;60755;51.374;10.662;2022-10-28T11:02:26;97799.59;;;19.50;68.50
72677;BME280;60755;51.374;10.662;2022-10-28T11:04:56;97789.97;;;19.54;67.97
72677;BME280;60755;51.374;10.662;2022-10-28T11:07:24;97782.13;;;19.73;66.60
72677;BME280;60755;51.374;10.662;2022-10-28T11:09:52;97784.50;;;19.75;67.23
72677;BME280;60755;51.374;10.662;2022-10-28T11:12:25;97785.97;;;19.91;65.71
72677;BME280;60755;51.374;10.662;2022-10-28T11:14:55;97778.09;;;19.76;65.84
72677;BME280;60755;51.374;10.662;2022-10-28T11:17:25;97783.03;;;19.88;66.79
72677;BME280;60755;51.374;10.662;2022-10-28T11:19:56;97771.53;;;19.92;66.21
72677;BME280;60755;51.374;10.662;2022-10-28T11:22:36;97766.50;;;20.15;65.19
72677;BME280;60755;51.374;10.662;2022-10-28T11:25:31;97763.94;;;20.04;65.83
72677;BME280;60755;51.374;10.662;2022-10-28T11:28:10;97768.47;;;20.04;64.33
72677;BME280;60755;51.374;10.662;2022-10-28T11:30:49;97761.69;;;20.17;64.38
72677;BME280;60755;51.374;10.662;2022-10-28T11:33:24;97756.91;;;20.14;64.54
72677;BME280;60755;51.374;10.662;2022-10-28T11:36:01;97757.44;;;20.16;64.22
72677;BME280;60755;51.374;10.662;2022-10-28T11:38:54;97756.31;;;20.22;64.56
72677;BME280;60755;51.374;10.662;2022-10-28T11:41:32;97756.22;;;20.27;64.45
72677;BME280;60755;51.374;10.662;2022-10-28T11:44:07;97755.66;;;20.30;65.21
72677;BME280;60755;51.374;10.662;2022-10-28T11:46:47;97756.38;;;20.35;64.81
72677;BME280;60755;51.374;10.662;2022-10-28T11:49:55;97758.72;;;20.42;63.01
72677;BME280;60755;51.374;10.662;2022-10-28T11:52:37;97754.44;;;20.46;63.14
72677;BME280;60755;51.374;10.662;2022-10-28T11:55:14;97750.25;;;20.35;64.02
72677;BME280;60755;51.374;10.662;2022-10-28T11:57:52;97740.56;;;20.44;63.04
72677;BME280;60755;51.374;10.662;2022-10-28T12:00:32;97744.88;;;20.40;63.80
72677;BME280;60755;51.374;10.662;2022-10-28T12:03:23;97747.44;;;20.50;63.26
72677;BME280;60755;51.374;10.662;2022-10-28T12:06:02;97744.63;;;20.60;62.82
72677;BME280;60755;51.374;10.662;2022-10-28T12:08:43;97741.91;;;20.84;62.82
72677;BME280;60755;51.374;10.662;2022-10-28T12:11:24;97736.06;;;20.82;62.54
72677;BME280;60755;51.374;10.662;2022-10-28T12:14:00;97730.44;;;21.03;60.52
72677;BME280;60755;51.374;10.662;2022-10-28T12:16:33;97736.41;;;21.13;60.67
72677;BME280;60755;51.374;10.662;2022-10-28T12:19:04;97730.56;;;20.92;61.45
72677;BME280;60755;51.374;10.662;2022-10-28T12:21:37;97737.09;;;20.86;61.96
72677;BME280;60755;51.374;10.662;2022-10-28T12:24:12;97736.94;;;20.78;61.37
72677;BME280;60755;51.374;10.662;2022-10-28T12:26:43;97740.19;;;20.75;61.98
72677;BME280;60755;51.374;10.662;2022-10-28T12:29:16;97743.94;;;20.74;62.27
72677;BME280;60755;51.374;10.662;2022-10-28T12:31:46;97741.25;;;20.74;61.75
72677;BME280;60755;51.374;10.662;2022-10-28T12:34:17;97730.50;;;20.79;61.22
72677;BME280;60755;51.374;10.662;2022-10-28T12:36:50;97735.41;;;20.72;61.87
72677;BME280;60755;51.374;10.662;2022-10-28T12:39:21;97725.44;;;20.77;61.93
72677;BME280;60755;51.374;10.662;2022-10-28T12:41:54;97724.44;;;20.73;62.24
72677;BME280;60755;51.374;10.662;2022-10-28T12:44:23;97720.75;;;20.69;62.37
72677;BME280;60755;51.374;10.662;2022-10-28T12:46:59;97727.91;;;20.74;61.17
72677;BME280;60755;51.374;10.662;2022-10-28T12:49:35;97726.09;;;20.88;61.54
72677;BME280;60755;51.374;10.662;2022-10-28T12:52:12;97711.66;;;20.89;61.75
72677;BME280;60755;51.374;10.662;2022-10-28T12:54:48;97712.66;;;20.93;62.04
72677;BME280;60755;51.374;10.662;2022-10-28T12:57:18;97706.38;;;20.84;61.35
72677;BME280;60755;51.374;10.662;2022-10-28T12:59:50;97708.22;;;20.70;61.62
72677;BME280;60755;51.374;10.662;2022-10-28T13:02:24;97708.63;;;20.58;62.26
72677;BME280;60755;51.374;10.662;2022-10-28T13:04:53;97694.84;;;20.70;62.75